Hailun, China
Current Conditions -  °F | °C
As of 3:00 PM on Tuesday 21 Oct 2014 (Local Time) from ZYHB Reporting Station
Clear Clear  
Wind Chill: 31°   Ceiling: Unl
Heat Index: 37°   Visibility: 6mi
Dew Point:   Wind: 9mph
Humidity: 20%   Direction: 280°W
Pressure: 30.27"   Gusts: NA
Location:  47.45°N, 126.93°E
Report Text: ZYHB 210700Z 28004MPS 240V300 CAVOK 03/M18 Q1025 NOSIG
Loading
Personal Weather Stations






























Interactive Weather Map
Tropical Storm Tracking
New forecast layout! Learn more

10-Day Weather Forecast

Advertisements
Track Severe Weather on mobile